sensor_id;sensor_type;location;lat;lon;timestamp;P1;durP1;ratioP1;P2;durP2;ratioP2
15110;SDS011;7656;51.954;7.998;2023-10-13T00:01:36;20.10;;;13.87;;
15110;SDS011;7656;51.954;7.998;2023-10-13T00:05:58;21.20;;;15.37;;
15110;SDS011;7656;51.954;7.998;2023-10-13T00:10:23;19.63;;;13.27;;
15110;SDS011;7656;51.954;7.998;2023-10-13T00:14:44;19.07;;;13.73;;
15110;SDS011;7656;51.954;7.998;2023-10-13T00:19:06;18.87;;;12.73;;
15110;SDS011;7656;51.954;7.998;2023-10-13T00:23:27;20.00;;;13.37;;
15110;SDS011;7656;51.954;7.998;2023-10-13T00:27:48;18.33;;;13.57;;
15110;SDS011;7656;51.954;7.998;2023-10-13T00:32:12;17.80;;;12.93;;
15110;SDS011;7656;51.954;7.998;2023-10-13T00:36:33;20.07;;;13.40;;
15110;SDS011;7656;51.954;7.998;2023-10-13T00:40:55;20.33;;;12.73;;
15110;SDS011;7656;51.954;7.998;2023-10-13T00:45:16;20.40;;;13.27;;
15110;SDS011;7656;51.954;7.998;2023-10-13T00:49:37;16.77;;;11.37;;
15110;SDS011;7656;51.954;7.998;2023-10-13T00:54:04;16.00;;;11.60;;
15110;SDS011;7656;51.954;7.998;2023-10-13T00:58:32;17.97;;;11.63;;
15110;SDS011;7656;51.954;7.998;2023-10-13T01:02:54;18.63;;;12.57;;
15110;SDS011;7656;51.954;7.998;2023-10-13T01:07:16;15.97;;;11.03;;
15110;SDS011;7656;51.954;7.998;2023-10-13T01:11:38;16.20;;;11.77;;
15110;SDS011;7656;51.954;7.998;2023-10-13T01:16:08;19.40;;;11.17;;
15110;SDS011;7656;51.954;7.998;2023-10-13T01:20:31;13.13;;;9.63;;
15110;SDS011;7656;51.954;7.998;2023-10-13T01:24:53;14.60;;;11.00;;
15110;SDS011;7656;51.954;7.998;2023-10-13T01:29:24;17.03;;;10.60;;
15110;SDS011;7656;51.954;7.998;2023-10-13T01:33:50;15.07;;;10.53;;
15110;SDS011;7656;51.954;7.998;2023-10-13T01:38:14;17.37;;;10.77;;
15110;SDS011;7656;51.954;7.998;2023-10-13T01:42:35;13.37;;;9.33;;
15110;SDS011;7656;51.954;7.998;2023-10-13T01:46:57;14.70;;;8.93;;
15110;SDS011;7656;51.954;7.998;2023-10-13T01:51:19;14.00;;;10.57;;
15110;SDS011;7656;51.954;7.998;2023-10-13T01:55:43;14.07;;;9.40;;
15110;SDS011;7656;51.954;7.998;2023-10-13T02:00:05;15.50;;;10.07;;
15110;SDS011;7656;51.954;7.998;2023-10-13T02:04:42;14.00;;;10.23;;
15110;SDS011;7656;51.954;7.998;2023-10-13T02:09:10;14.50;;;9.00;;
15110;SDS011;7656;51.954;7.998;2023-10-13T02:13:33;13.87;;;9.47;;
15110;SDS011;7656;51.954;7.998;2023-10-13T02:18:02;16.50;;;10.30;;
15110;SDS011;7656;51.954;7.998;2023-10-13T02:22:23;13.40;;;9.80;;
15110;SDS011;7656;51.954;7.998;2023-10-13T02:26:48;12.10;;;8.90;;
15110;SDS011;7656;51.954;7.998;2023-10-13T02:31:09;12.23;;;9.00;;
15110;SDS011;7656;51.954;7.998;2023-10-13T02:35:32;13.77;;;8.13;;
15110;SDS011;7656;51.954;7.998;2023-10-13T02:40:01;13.17;;;8.60;;
15110;SDS011;7656;51.954;7.998;2023-10-13T02:44:23;14.30;;;8.57;;
15110;SDS011;7656;51.954;7.998;2023-10-13T02:48:54;11.57;;;8.30;;
15110;SDS011;7656;51.954;7.998;2023-10-13T02:53:17;12.50;;;9.07;;
15110;SDS011;7656;51.954;7.998;2023-10-13T02:57:39;11.13;;;9.03;;
15110;SDS011;7656;51.954;7.998;2023-10-13T03:02:01;13.00;;;8.80;;
15110;SDS011;7656;51.954;7.998;2023-10-13T03:06:37;12.17;;;8.47;;
15110;SDS011;7656;51.954;7.998;2023-10-13T03:11:01;13.40;;;8.50;;
15110;SDS011;7656;51.954;7.998;2023-10-13T03:15:25;9.60;;;7.50;;
15110;SDS011;7656;51.954;7.998;2023-10-13T03:19:51;10.67;;;8.10;;
15110;SDS011;7656;51.954;7.998;2023-10-13T03:24:12;10.70;;;8.07;;
15110;SDS011;7656;51.954;7.998;2023-10-13T03:28:34;12.43;;;8.10;;
15110;SDS011;7656;51.954;7.998;2023-10-13T03:32:55;11.20;;;7.93;;
15110;SDS011;7656;51.954;7.998;2023-10-13T03:37:17;10.87;;;8.17;;
15110;SDS011;7656;51.954;7.998;2023-10-13T03:41:40;14.03;;;8.63;;
15110;SDS011;7656;51.954;7.998;2023-10-13T03:46:01;15.33;;;8.37;;
15110;SDS011;7656;51.954;7.998;2023-10-13T03:50:28;11.70;;;7.73;;
15110;SDS011;7656;51.954;7.998;2023-10-13T03:54:52;11.27;;;8.33;;
15110;SDS011;7656;51.954;7.998;2023-10-13T03:59:13;12.27;;;8.03;;
15110;SDS011;7656;51.954;7.998;2023-10-13T04:03:37;11.77;;;8.10;;
15110;SDS011;7656;51.954;7.998;2023-10-13T04:08:01;10.03;;;7.83;;
15110;SDS011;7656;51.954;7.998;2023-10-13T04:12:42;12.37;;;8.93;;
15110;SDS011;7656;51.954;7.998;2023-10-13T04:17:22;12.67;;;8.20;;
15110;SDS011;7656;51.954;7.998;2023-10-13T04:21:44;10.07;;;8.03;;
15110;SDS011;7656;51.954;7.998;2023-10-13T04:26:20;11.73;;;8.57;;
15110;SDS011;7656;51.954;7.998;2023-10-13T04:35:09;14.33;;;7.87;;
15110;SDS011;7656;51.954;7.998;2023-10-13T04:39:39;11.60;;;8.40;;
15110;SDS011;7656;51.954;7.998;2023-10-13T04:44:00;10.30;;;7.97;;
15110;SDS011;7656;51.954;7.998;2023-10-13T04:48:39;9.97;;;7.57;;
15110;SDS011;7656;51.954;7.998;2023-10-13T04:53:07;9.17;;;8.10;;
15110;SDS011;7656;51.954;7.998;2023-10-13T04:57:47;10.57;;;7.33;;
15110;SDS011;7656;51.954;7.998;2023-10-13T05:02:14;10.30;;;8.57;;
15110;SDS011;7656;51.954;7.998;2023-10-13T05:06:53;11.03;;;8.03;;
15110;SDS011;7656;51.954;7.998;2023-10-13T05:11:33;9.63;;;7.67;;
15110;SDS011;7656;51.954;7.998;2023-10-13T05:16:12;13.87;;;8.00;;
15110;SDS011;7656;51.954;7.998;2023-10-13T05:20:55;8.47;;;7.43;;
15110;SDS011;7656;51.954;7.998;2023-10-13T05:25:38;11.80;;;7.23;;
15110;SDS011;7656;51.954;7.998;2023-10-13T05:30:18;8.37;;;6.43;;
15110;SDS011;7656;51.954;7.998;2023-10-13T05:34:57;9.57;;;7.13;;
15110;SDS011;7656;51.954;7.998;2023-10-13T05:39:37;8.47;;;6.77;;
15110;SDS011;7656;51.954;7.998;2023-10-13T05:44:16;9.93;;;7.47;;
15110;SDS011;7656;51.954;7.998;2023-10-13T05:48:56;11.03;;;6.67;;
15110;SDS011;7656;51.954;7.998;2023-10-13T05:53:20;10.07;;;6.70;;
15110;SDS011;7656;51.954;7.998;2023-10-13T05:57:59;9.73;;;6.73;;
15110;SDS011;7656;51.954;7.998;2023-10-13T06:02:39;9.80;;;6.77;;
15110;SDS011;7656;51.954;7.998;2023-10-13T06:07:18;8.23;;;6.27;;
15110;SDS011;7656;51.954;7.998;2023-10-13T06:11:57;7.57;;;6.33;;
15110;SDS011;7656;51.954;7.998;2023-10-13T06:16:37;5.93;;;5.17;;
15110;SDS011;7656;51.954;7.998;2023-10-13T06:21:17;8.47;;;5.43;;
15110;SDS011;7656;51.954;7.998;2023-10-13T06:25:58;9.13;;;6.23;;
15110;SDS011;7656;51.954;7.998;2023-10-13T06:30:38;8.43;;;6.23;;
15110;SDS011;7656;51.954;7.998;2023-10-13T06:34:59;9.53;;;5.87;;
15110;SDS011;7656;51.954;7.998;2023-10-13T06:39:39;8.27;;;5.70;;
15110;SDS011;7656;51.954;7.998;2023-10-13T06:44:00;8.80;;;5.90;;
15110;SDS011;7656;51.954;7.998;2023-10-13T06:48:21;7.90;;;5.80;;
15110;SDS011;7656;51.954;7.998;2023-10-13T06:52:42;7.40;;;5.60;;
15110;SDS011;7656;51.954;7.998;2023-10-13T06:57:03;9.33;;;5.10;;
15110;SDS011;7656;51.954;7.998;2023-10-13T07:01:31;9.80;;;5.27;;
15110;SDS011;7656;51.954;7.998;2023-10-13T07:05:58;9.50;;;5.03;;
15110;SDS011;7656;51.954;7.998;2023-10-13T07:10:20;6.80;;;4.77;;
15110;SDS011;7656;51.954;7.998;2023-10-13T07:14:50;6.17;;;4.53;;
15110;SDS011;7656;51.954;7.998;2023-10-13T07:19:19;8.37;;;4.90;;
15110;SDS011;7656;51.954;7.998;2023-10-13T07:23:41;6.23;;;4.63;;
15110;SDS011;7656;51.954;7.998;2023-10-13T07:28:21;5.40;;;4.10;;
15110;SDS011;7656;51.954;7.998;2023-10-13T07:32:42;6.07;;;4.10;;
15110;SDS011;7656;51.954;7.998;2023-10-13T07:37:06;6.13;;;4.47;;
15110;SDS011;7656;51.954;7.998;2023-10-13T07:41:33;6.67;;;4.17;;
15110;SDS011;7656;51.954;7.998;2023-10-13T07:45:56;7.13;;;4.70;;
15110;SDS011;7656;51.954;7.998;2023-10-13T07:50:20;6.23;;;3.80;;
15110;SDS011;7656;51.954;7.998;2023-10-13T07:54:46;5.30;;;4.23;;
15110;SDS011;7656;51.954;7.998;2023-10-13T07:59:28;5.57;;;4.40;;
15110;SDS011;7656;51.954;7.998;2023-10-13T08:03:49;5.83;;;4.63;;
15110;SDS011;7656;51.954;7.998;2023-10-13T08:08:24;7.17;;;3.70;;
15110;SDS011;7656;51.954;7.998;2023-10-13T08:12:46;3.83;;;3.50;;
15110;SDS011;7656;51.954;7.998;2023-10-13T08:17:08;9.80;;;3.93;;
15110;SDS011;7656;51.954;7.998;2023-10-13T08:21:33;6.43;;;3.50;;
15110;SDS011;7656;51.954;7.998;2023-10-13T08:25:54;5.80;;;4.20;;
15110;SDS011;7656;51.954;7.998;2023-10-13T08:30:47;6.97;;;5.33;;
15110;SDS011;7656;51.954;7.998;2023-10-13T08:35:14;4.67;;;3.40;;
15110;SDS011;7656;51.954;7.998;2023-10-13T08:39:53;5.93;;;3.73;;
15110;SDS011;7656;51.954;7.998;2023-10-13T08:44:22;7.72;;;3.83;;
15110;SDS011;7656;51.954;7.998;2023-10-13T08:48:54;6.05;;;4.47;;
15110;SDS011;7656;51.954;7.998;2023-10-13T08:53:43;6.47;;;4.50;;
15110;SDS011;7656;51.954;7.998;2023-10-13T08:58:08;5.10;;;3.90;;
15110;SDS011;7656;51.954;7.998;2023-10-13T09:02:35;8.43;;;3.47;;
15110;SDS011;7656;51.954;7.998;2023-10-13T09:07:22;7.68;;;3.80;;
15110;SDS011;7656;51.954;7.998;2023-10-13T09:11:45;4.78;;;3.40;;
15110;SDS011;7656;51.954;7.998;2023-10-13T09:16:12;4.88;;;3.60;;
15110;SDS011;7656;51.954;7.998;2023-10-13T09:20:59;6.30;;;3.33;;
15110;SDS011;7656;51.954;7.998;2023-10-13T09:25:40;6.60;;;4.15;;
15110;SDS011;7656;51.954;7.998;2023-10-13T09:30:29;6.50;;;3.40;;
15110;SDS011;7656;51.954;7.998;2023-10-13T09:34:51;8.32;;;3.58;;
15110;SDS011;7656;51.954;7.998;2023-10-13T09:39:14;9.70;;;4.80;;
15110;SDS011;7656;51.954;7.998;2023-10-13T09:43:50;7.97;;;3.83;;
15110;SDS011;7656;51.954;7.998;2023-10-13T09:48:12;8.38;;;4.00;;
15110;SDS011;7656;51.954;7.998;2023-10-13T09:52:43;11.13;;;4.03;;
15110;SDS011;7656;51.954;7.998;2023-10-13T09:57:16;5.55;;;3.40;;
15110;SDS011;7656;51.954;7.998;2023-10-13T10:01:44;6.32;;;4.00;;
15110;SDS011;7656;51.954;7.998;2023-10-13T10:06:12;8.90;;;4.47;;
15110;SDS011;7656;51.954;7.998;2023-10-13T10:10:56;9.50;;;4.40;;
15110;SDS011;7656;51.954;7.998;2023-10-13T10:15:29;9.90;;;4.43;;
15110;SDS011;7656;51.954;7.998;2023-10-13T10:20:04;5.15;;;3.30;;
15110;SDS011;7656;51.954;7.998;2023-10-13T10:24:35;8.35;;;3.83;;
15110;SDS011;7656;51.954;7.998;2023-10-13T10:28:57;7.65;;;3.97;;
15110;SDS011;7656;51.954;7.998;2023-10-13T10:33:20;9.65;;;4.15;;
15110;SDS011;7656;51.954;7.998;2023-10-13T10:37:53;8.45;;;3.67;;
15110;SDS011;7656;51.954;7.998;2023-10-13T10:42:31;9.50;;;4.63;;
15110;SDS011;7656;51.954;7.998;2023-10-13T10:46:53;7.80;;;4.07;;
15110;SDS011;7656;51.954;7.998;2023-10-13T10:51:17;7.32;;;4.35;;
15110;SDS011;7656;51.954;7.998;2023-10-13T10:55:41;7.50;;;4.18;;
15110;SDS011;7656;51.954;7.998;2023-10-13T11:00:03;11.93;;;4.70;;
15110;SDS011;7656;51.954;7.998;2023-10-13T11:04:35;8.23;;;3.65;;
15110;SDS011;7656;51.954;7.998;2023-10-13T11:09:22;9.25;;;4.25;;
15110;SDS011;7656;51.954;7.998;2023-10-13T11:13:57;8.20;;;4.43;;
15110;SDS011;7656;51.954;7.998;2023-10-13T11:18:34;7.38;;;3.95;;
15110;SDS011;7656;51.954;7.998;2023-10-13T11:23:01;13.77;;;4.57;;
15110;SDS011;7656;51.954;7.998;2023-10-13T11:27:29;8.60;;;4.38;;
15110;SDS011;7656;51.954;7.998;2023-10-13T11:32:09;9.48;;;4.43;;
15110;SDS011;7656;51.954;7.998;2023-10-13T11:36:40;8.25;;;4.03;;
15110;SDS011;7656;51.954;7.998;2023-10-13T11:41:02;7.63;;;4.07;;
15110;SDS011;7656;51.954;7.998;2023-10-13T11:45:27;9.02;;;4.20;;
15110;SDS011;7656;51.954;7.998;2023-10-13T11:49:56;10.00;;;3.67;;
15110;SDS011;7656;51.954;7.998;2023-10-13T11:54:19;10.75;;;4.25;;
15110;SDS011;7656;51.954;7.998;2023-10-13T11:58:43;10.43;;;4.10;;
15110;SDS011;7656;51.954;7.998;2023-10-13T12:03:06;10.63;;;4.53;;
15110;SDS011;7656;51.954;7.998;2023-10-13T12:07:45;10.95;;;4.35;;
15110;SDS011;7656;51.954;7.998;2023-10-13T12:12:08;10.15;;;4.90;;
15110;SDS011;7656;51.954;7.998;2023-10-13T12:16:29;8.98;;;4.53;;
15110;SDS011;7656;51.954;7.998;2023-10-13T12:20:54;7.75;;;4.60;;
15110;SDS011;7656;51.954;7.998;2023-10-13T12:25:17;12.85;;;5.18;;
15110;SDS011;7656;51.954;7.998;2023-10-13T12:29:54;7.15;;;4.45;;
15110;SDS011;7656;51.954;7.998;2023-10-13T12:34:17;10.90;;;4.90;;
15110;SDS011;7656;51.954;7.998;2023-10-13T12:38:51;12.27;;;5.10;;
15110;SDS011;7656;51.954;7.998;2023-10-13T12:43:32;9.93;;;4.38;;
15110;SDS011;7656;51.954;7.998;2023-10-13T12:48:12;9.10;;;3.72;;
15110;SDS011;7656;51.954;7.998;2023-10-13T12:52:52;11.32;;;4.22;;
15110;SDS011;7656;51.954;7.998;2023-10-13T12:57:16;9.50;;;3.78;;
15110;SDS011;7656;51.954;7.998;2023-10-13T13:01:37;10.32;;;3.83;;
15110;SDS011;7656;51.954;7.998;2023-10-13T13:06:02;8.93;;;4.00;;
15110;SDS011;7656;51.954;7.998;2023-10-13T13:10:27;8.95;;;4.25;;
15110;SDS011;7656;51.954;7.998;2023-10-13T13:14:57;6.05;;;4.38;;
15110;SDS011;7656;51.954;7.998;2023-10-13T13:19:20;11.77;;;5.47;;
15110;SDS011;7656;51.954;7.998;2023-10-13T13:23:46;7.63;;;4.38;;
15110;SDS011;7656;51.954;7.998;2023-10-13T13:28:07;10.43;;;4.53;;
15110;SDS011;7656;51.954;7.998;2023-10-13T13:32:30;7.55;;;4.35;;
15110;SDS011;7656;51.954;7.998;2023-10-13T13:36:52;9.25;;;4.43;;
15110;SDS011;7656;51.954;7.998;2023-10-13T13:41:14;8.82;;;4.47;;
15110;SDS011;7656;51.954;7.998;2023-10-13T13:45:38;13.05;;;5.32;;
15110;SDS011;7656;51.954;7.998;2023-10-13T13:50:02;10.82;;;5.13;;
15110;SDS011;7656;51.954;7.998;2023-10-13T13:54:35;9.88;;;4.18;;
15110;SDS011;7656;51.954;7.998;2023-10-13T13:58:56;7.15;;;4.47;;
15110;SDS011;7656;51.954;7.998;2023-10-13T14:03:17;5.25;;;4.50;;
15110;SDS011;7656;51.954;7.998;2023-10-13T14:07:51;10.10;;;4.70;;
15110;SDS011;7656;51.954;7.998;2023-10-13T14:12:15;10.27;;;5.13;;
15110;SDS011;7656;51.954;7.998;2023-10-13T14:17:01;5.85;;;4.72;;
15110;SDS011;7656;51.954;7.998;2023-10-13T14:21:27;14.82;;;5.15;;
15110;SDS011;7656;51.954;7.998;2023-10-13T14:25:48;6.25;;;4.28;;
15110;SDS011;7656;51.954;7.998;2023-10-13T14:30:11;7.78;;;4.03;;
15110;SDS011;7656;51.954;7.998;2023-10-13T14:34:40;8.95;;;4.53;;
15110;SDS011;7656;51.954;7.998;2023-10-13T14:39:04;10.68;;;4.75;;
15110;SDS011;7656;51.954;7.998;2023-10-13T14:43:29;8.00;;;3.70;;
15110;SDS011;7656;51.954;7.998;2023-10-13T14:47:50;11.23;;;4.60;;
15110;SDS011;7656;51.954;7.998;2023-10-13T14:52:13;13.35;;;4.50;;
15110;SDS011;7656;51.954;7.998;2023-10-13T14:56:34;15.25;;;5.28;;
15110;SDS011;7656;51.954;7.998;2023-10-13T15:00:55;10.95;;;4.22;;
15110;SDS011;7656;51.954;7.998;2023-10-13T15:05:19;10.68;;;4.25;;
15110;SDS011;7656;51.954;7.998;2023-10-13T15:09:40;12.20;;;4.65;;
15110;SDS011;7656;51.954;7.998;2023-10-13T15:14:03;9.07;;;4.25;;
15110;SDS011;7656;51.954;7.998;2023-10-13T15:18:28;7.93;;;3.80;;
15110;SDS011;7656;51.954;7.998;2023-10-13T15:22:49;12.07;;;4.57;;
15110;SDS011;7656;51.954;7.998;2023-10-13T15:27:14;10.43;;;4.15;;
15110;SDS011;7656;51.954;7.998;2023-10-13T15:31:35;8.82;;;3.92;;
15110;SDS011;7656;51.954;7.998;2023-10-13T15:35:56;10.00;;;4.10;;
15110;SDS011;7656;51.954;7.998;2023-10-13T15:40:17;6.95;;;4.05;;
15110;SDS011;7656;51.954;7.998;2023-10-13T15:44:38;14.80;;;4.72;;
15110;SDS011;7656;51.954;7.998;2023-10-13T15:49:03;12.23;;;3.92;;
15110;SDS011;7656;51.954;7.998;2023-10-13T15:53:26;7.50;;;4.40;;
15110;SDS011;7656;51.954;7.998;2023-10-13T15:57:48;6.05;;;3.95;;
15110;SDS011;7656;51.954;7.998;2023-10-13T16:02:13;10.32;;;4.75;;
15110;SDS011;7656;51.954;7.998;2023-10-13T16:06:37;11.40;;;3.92;;
15110;SDS011;7656;51.954;7.998;2023-10-13T16:11:03;10.00;;;3.85;;
15110;SDS011;7656;51.954;7.998;2023-10-13T16:15:28;10.35;;;4.38;;
15110;SDS011;7656;51.954;7.998;2023-10-13T16:19:49;9.50;;;4.07;;
15110;SDS011;7656;51.954;7.998;2023-10-13T16:24:11;12.02;;;4.15;;
15110;SDS011;7656;51.954;7.998;2023-10-13T16:28:32;14.80;;;4.03;;
15110;SDS011;7656;51.954;7.998;2023-10-13T16:32:56;14.50;;;4.50;;
15110;SDS011;7656;51.954;7.998;2023-10-13T16:37:17;12.68;;;4.15;;
15110;SDS011;7656;51.954;7.998;2023-10-13T16:41:38;9.63;;;4.18;;
15110;SDS011;7656;51.954;7.998;2023-10-13T16:46:01;13.82;;;5.18;;
15110;SDS011;7656;51.954;7.998;2023-10-13T16:50:32;4.72;;;3.63;;
15110;SDS011;7656;51.954;7.998;2023-10-13T16:54:57;9.02;;;3.88;;
15110;SDS011;7656;51.954;7.998;2023-10-13T16:59:19;8.15;;;3.40;;
15110;SDS011;7656;51.954;7.998;2023-10-13T17:03:40;7.05;;;3.63;;
15110;SDS011;7656;51.954;7.998;2023-10-13T17:08:07;7.55;;;3.70;;
15110;SDS011;7656;51.954;7.998;2023-10-13T17:12:28;8.18;;;3.47;;
15110;SDS011;7656;51.954;7.998;2023-10-13T17:16:49;10.10;;;4.05;;
15110;SDS011;7656;51.954;7.998;2023-10-13T17:21:17;13.32;;;4.20;;
15110;SDS011;7656;51.954;7.998;2023-10-13T17:25:45;7.93;;;4.10;;
15110;SDS011;7656;51.954;7.998;2023-10-13T17:30:06;11.88;;;4.20;;
15110;SDS011;7656;51.954;7.998;2023-10-13T17:34:28;11.50;;;3.60;;
15110;SDS011;7656;51.954;7.998;2023-10-13T17:38:49;6.55;;;3.35;;
15110;SDS011;7656;51.954;7.998;2023-10-13T17:43:12;10.32;;;3.97;;
15110;SDS011;7656;51.954;7.998;2023-10-13T17:47:33;7.32;;;3.83;;
15110;SDS011;7656;51.954;7.998;2023-10-13T17:51:57;7.80;;;4.15;;
15110;SDS011;7656;51.954;7.998;2023-10-13T17:56:18;7.68;;;3.72;;
15110;SDS011;7656;51.954;7.998;2023-10-13T18:00:40;7.00;;;4.15;;
15110;SDS011;7656;51.954;7.998;2023-10-13T18:05:04;8.68;;;3.55;;
15110;SDS011;7656;51.954;7.998;2023-10-13T18:09:25;12.35;;;4.30;;
15110;SDS011;7656;51.954;7.998;2023-10-13T18:13:48;9.43;;;3.85;;
15110;SDS011;7656;51.954;7.998;2023-10-13T18:18:09;8.15;;;3.90;;
15110;SDS011;7656;51.954;7.998;2023-10-13T18:22:30;11.95;;;4.45;;
15110;SDS011;7656;51.954;7.998;2023-10-13T18:26:51;7.40;;;3.63;;
15110;SDS011;7656;51.954;7.998;2023-10-13T18:31:13;11.40;;;5.13;;
15110;SDS011;7656;51.954;7.998;2023-10-13T18:35:34;15.45;;;4.63;;
15110;SDS011;7656;51.954;7.998;2023-10-13T18:39:57;8.80;;;4.15;;
15110;SDS011;7656;51.954;7.998;2023-10-13T18:44:18;7.82;;;4.20;;
15110;SDS011;7656;51.954;7.998;2023-10-13T18:48:44;8.35;;;4.63;;
15110;SDS011;7656;51.954;7.998;2023-10-13T18:53:06;8.98;;;4.10;;
15110;SDS011;7656;51.954;7.998;2023-10-13T18:57:29;8.75;;;4.25;;
15110;SDS011;7656;51.954;7.998;2023-10-13T19:01:51;9.32;;;4.15;;
15110;SDS011;7656;51.954;7.998;2023-10-13T19:06:12;9.85;;;4.65;;
15110;SDS011;7656;51.954;7.998;2023-10-13T19:10:35;7.23;;;4.07;;
15110;SDS011;7656;51.954;7.998;2023-10-13T19:14:57;9.07;;;4.15;;
15110;SDS011;7656;51.954;7.998;2023-10-13T19:19:18;7.03;;;4.00;;
15110;SDS011;7656;51.954;7.998;2023-10-13T19:23:44;7.20;;;4.87;;
15110;SDS011;7656;51.954;7.998;2023-10-13T19:28:13;10.07;;;4.60;;
15110;SDS011;7656;51.954;7.998;2023-10-13T19:32:34;11.53;;;4.30;;
15110;SDS011;7656;51.954;7.998;2023-10-13T19:36:59;10.33;;;4.40;;
15110;SDS011;7656;51.954;7.998;2023-10-13T19:41:25;7.77;;;4.63;;
15110;SDS011;7656;51.954;7.998;2023-10-13T19:45:46;8.20;;;4.40;;
15110;SDS011;7656;51.954;7.998;2023-10-13T19:50:09;9.13;;;4.20;;
15110;SDS011;7656;51.954;7.998;2023-10-13T19:54:33;9.40;;;5.17;;
15110;SDS011;7656;51.954;7.998;2023-10-13T19:58:54;9.40;;;3.73;;
15110;SDS011;7656;51.954;7.998;2023-10-13T20:03:15;9.13;;;4.23;;
15110;SDS011;7656;51.954;7.998;2023-10-13T20:07:40;12.73;;;5.40;;
15110;SDS011;7656;51.954;7.998;2023-10-13T20:12:01;9.03;;;4.40;;
15110;SDS011;7656;51.954;7.998;2023-10-13T20:16:23;7.13;;;4.88;;
15110;SDS011;7656;51.954;7.998;2023-10-13T20:20:45;11.00;;;4.40;;
15110;SDS011;7656;51.954;7.998;2023-10-13T20:25:06;14.33;;;5.13;;
15110;SDS011;7656;51.954;7.998;2023-10-13T20:29:28;9.60;;;5.38;;
15110;SDS011;7656;51.954;7.998;2023-10-13T20:33:49;9.40;;;5.20;;
15110;SDS011;7656;51.954;7.998;2023-10-13T20:38:10;10.20;;;5.33;;
15110;SDS011;7656;51.954;7.998;2023-10-13T20:42:31;9.77;;;5.70;;
15110;SDS011;7656;51.954;7.998;2023-10-13T20:46:54;10.90;;;5.77;;
15110;SDS011;7656;51.954;7.998;2023-10-13T20:51:17;9.50;;;4.90;;
15110;SDS011;7656;51.954;7.998;2023-10-13T20:55:38;10.47;;;5.27;;
15110;SDS011;7656;51.954;7.998;2023-10-13T21:00:01;9.90;;;6.13;;
15110;SDS011;7656;51.954;7.998;2023-10-13T21:04:23;15.57;;;6.60;;
15110;SDS011;7656;51.954;7.998;2023-10-13T21:08:45;13.10;;;6.33;;
15110;SDS011;7656;51.954;7.998;2023-10-13T21:13:07;12.03;;;6.03;;
15110;SDS011;7656;51.954;7.998;2023-10-13T21:17:30;10.07;;;6.03;;
15110;SDS011;7656;51.954;7.998;2023-10-13T21:21:51;11.60;;;5.67;;
15110;SDS011;7656;51.954;7.998;2023-10-13T21:26:18;12.57;;;6.67;;
15110;SDS011;7656;51.954;7.998;2023-10-13T21:30:40;12.00;;;6.20;;
15110;SDS011;7656;51.954;7.998;2023-10-13T21:35:02;12.63;;;5.73;;
15110;SDS011;7656;51.954;7.998;2023-10-13T21:39:23;10.07;;;6.40;;
15110;SDS011;7656;51.954;7.998;2023-10-13T21:43:44;11.77;;;6.10;;
15110;SDS011;7656;51.954;7.998;2023-10-13T21:48:06;8.57;;;5.27;;
15110;SDS011;7656;51.954;7.998;2023-10-13T21:52:29;11.43;;;5.77;;
15110;SDS011;7656;51.954;7.998;2023-10-13T21:56:51;12.27;;;6.20;;
15110;SDS011;7656;51.954;7.998;2023-10-13T22:01:13;12.57;;;6.33;;
15110;SDS011;7656;51.954;7.998;2023-10-13T22:05:41;10.30;;;5.07;;
15110;SDS011;7656;51.954;7.998;2023-10-13T22:10:05;12.83;;;5.63;;
15110;SDS011;7656;51.954;7.998;2023-10-13T22:14:27;10.43;;;6.43;;
15110;SDS011;7656;51.954;7.998;2023-10-13T22:18:48;8.73;;;5.10;;
15110;SDS011;7656;51.954;7.998;2023-10-13T22:23:09;12.20;;;5.87;;
15110;SDS011;7656;51.954;7.998;2023-10-13T22:27:31;11.83;;;5.63;;
15110;SDS011;7656;51.954;7.998;2023-10-13T22:31:53;12.47;;;5.33;;
15110;SDS011;7656;51.954;7.998;2023-10-13T22:36:15;12.40;;;5.30;;
15110;SDS011;7656;51.954;7.998;2023-10-13T22:40:42;8.17;;;5.00;;
15110;SDS011;7656;51.954;7.998;2023-10-13T22:45:03;12.00;;;5.23;;
15110;SDS011;7656;51.954;7.998;2023-10-13T22:49:25;11.87;;;5.17;;
15110;SDS011;7656;51.954;7.998;2023-10-13T22:53:46;13.90;;;5.37;;
15110;SDS011;7656;51.954;7.998;2023-10-13T22:58:07;8.07;;;5.27;;
15110;SDS011;7656;51.954;7.998;2023-10-13T23:02:29;12.23;;;5.40;;
15110;SDS011;7656;51.954;7.998;2023-10-13T23:06:50;8.50;;;5.20;;
15110;SDS011;7656;51.954;7.998;2023-10-13T23:11:16;8.80;;;5.77;;
15110;SDS011;7656;51.954;7.998;2023-10-13T23:15:52;7.87;;;5.40;;
15110;SDS011;7656;51.954;7.998;2023-10-13T23:20:14;9.17;;;5.33;;
15110;SDS011;7656;51.954;7.998;2023-10-13T23:24:38;8.43;;;5.70;;
15110;SDS011;7656;51.954;7.998;2023-10-13T23:29:00;16.67;;;5.93;;
15110;SDS011;7656;51.954;7.998;2023-10-13T23:33:21;11.10;;;5.17;;
15110;SDS011;7656;51.954;7.998;2023-10-13T23:37:43;11.77;;;5.83;;
15110;SDS011;7656;51.954;7.998;2023-10-13T23:42:04;13.40;;;5.50;;
15110;SDS011;7656;51.954;7.998;2023-10-13T23:46:27;8.30;;;5.57;;
15110;SDS011;7656;51.954;7.998;2023-10-13T23:50:55;11.10;;;5.63;;
15110;SDS011;7656;51.954;7.998;2023-10-13T23:55:20;13.47;;;5.97;;
15110;SDS011;7656;51.954;7.998;2023-10-13T23:59:41;12.57;;;5.70;;
